createdAt,value
2017-12-13T00:01:58.884Z,95.90
2017-12-13T00:04:26.405Z,96.49
2017-12-13T00:06:53.914Z,96.96
2017-12-13T00:09:21.435Z,97.03
2017-12-13T00:11:48.940Z,96.95
2017-12-13T00:14:16.466Z,96.49
2017-12-13T00:16:43.993Z,96.44
2017-12-13T00:19:11.761Z,96.95
2017-12-13T00:21:39.288Z,97.54
2017-12-13T00:24:06.904Z,97.55
2017-12-13T00:26:34.520Z,96.76
2017-12-13T00:29:02.054Z,96.35
2017-12-13T00:31:29.581Z,96.43
2017-12-13T00:33:57.124Z,96.03
2017-12-13T00:36:24.628Z,95.49
2017-12-13T00:38:52.164Z,94.62
2017-12-13T00:41:19.704Z,94.27
2017-12-13T00:43:47.239Z,94.21
2017-12-13T00:46:14.773Z,95.48
2017-12-13T00:48:42.289Z,94.04
2017-12-13T00:51:09.795Z,93.22
2017-12-13T00:53:37.313Z,94.39
2017-12-13T00:56:04.830Z,94.54
2017-12-13T00:58:32.354Z,95.19
2017-12-13T01:00:59.854Z,95.42
2017-12-13T01:03:28.255Z,96.29
2017-12-13T01:05:55.811Z,96.61
2017-12-13T01:08:23.345Z,96.62
2017-12-13T01:10:50.879Z,96.12
2017-12-13T01:13:18.397Z,96.00
2017-12-13T01:15:45.919Z,94.50
2017-12-13T01:18:13.454Z,94.23
2017-12-13T01:20:40.999Z,94.00
2017-12-13T01:23:08.530Z,93.55
2017-12-13T01:25:36.040Z,92.47
2017-12-13T01:28:03.580Z,92.02
2017-12-13T01:30:31.116Z,92.07
2017-12-13T01:32:58.624Z,93.12
2017-12-13T01:35:26.135Z,95.00
2017-12-13T01:37:53.656Z,94.48
2017-12-13T01:40:21.186Z,94.37
2017-12-13T01:42:48.704Z,93.67
2017-12-13T01:45:16.325Z,92.38
2017-12-13T01:47:43.855Z,92.31
2017-12-13T01:50:11.379Z,93.84
2017-12-13T01:52:38.874Z,94.94
2017-12-13T01:55:06.424Z,95.25
2017-12-13T01:57:33.946Z,95.93
2017-12-13T02:00:01.461Z,96.17
2017-12-13T02:02:28.957Z,96.25
2017-12-13T02:04:56.461Z,96.29
2017-12-13T02:07:24.021Z,96.11
2017-12-13T02:09:51.546Z,96.30
2017-12-13T02:12:19.084Z,95.44
2017-12-13T02:14:46.992Z,95.46
2017-12-13T02:17:14.531Z,94.82
2017-12-13T02:19:42.221Z,94.75
2017-12-13T02:22:09.730Z,94.23
2017-12-13T02:24:37.250Z,94.99
2017-12-13T02:27:04.764Z,95.71
2017-12-13T02:29:32.309Z,95.90
2017-12-13T02:31:59.826Z,95.51
2017-12-13T02:34:27.336Z,94.86
2017-12-13T02:36:54.895Z,94.69
2017-12-13T02:39:22.439Z,94.55
2017-12-13T02:41:49.941Z,95.81
2017-12-13T02:44:17.693Z,95.68
2017-12-13T02:46:45.210Z,96.24
2017-12-13T02:49:12.725Z,96.25
2017-12-13T02:51:40.287Z,96.31
2017-12-13T02:54:07.801Z,95.90
2017-12-13T02:56:35.322Z,94.89
2017-12-13T02:59:02.833Z,93.79
2017-12-13T03:01:30.345Z,94.24
2017-12-13T03:03:57.855Z,95.06
2017-12-13T03:06:25.386Z,95.97
2017-12-13T03:08:52.882Z,95.95
2017-12-13T03:11:20.418Z,95.56
2017-12-13T03:13:47.961Z,95.39
2017-12-13T03:16:15.578Z,95.47
2017-12-13T03:18:43.115Z,95.10
2017-12-13T03:21:10.639Z,95.93
2017-12-13T03:23:38.225Z,95.90
2017-12-13T03:26:05.755Z,94.66
2017-12-13T03:28:33.290Z,93.46
2017-12-13T03:31:00.806Z,94.71
2017-12-13T03:33:28.381Z,95.09
2017-12-13T03:35:55.875Z,95.08
2017-12-13T03:38:23.395Z,96.27
2017-12-13T03:40:50.935Z,96.63
2017-12-13T03:43:18.481Z,96.25
2017-12-13T03:45:46.027Z,95.35
2017-12-13T03:48:13.547Z,93.22
2017-12-13T03:50:41.085Z,92.58
2017-12-13T03:53:08.590Z,94.02
2017-12-13T03:55:36.181Z,93.02
2017-12-13T03:58:03.737Z,92.00
2017-12-13T04:00:31.240Z,91.13
2017-12-13T04:02:58.785Z,91.07
2017-12-13T04:05:26.311Z,91.06
2017-12-13T04:07:53.853Z,92.82
2017-12-13T04:10:21.367Z,93.37
2017-12-13T04:12:48.934Z,92.60
2017-12-13T04:15:16.490Z,91.61
2017-12-13T04:17:44.010Z,91.39
2017-12-13T04:20:11.500Z,91.91
2017-12-13T04:22:38.996Z,93.16
2017-12-13T04:25:06.545Z,94.46
2017-12-13T04:27:34.055Z,94.27
2017-12-13T04:30:01.586Z,93.13
2017-12-13T04:32:29.096Z,93.46
2017-12-13T04:34:56.604Z,93.86
2017-12-13T04:37:24.140Z,93.90
2017-12-13T04:39:51.689Z,93.10
2017-12-13T04:42:19.178Z,92.27
2017-12-13T04:44:46.696Z,93.45
2017-12-13T04:47:14.232Z,94.34
2017-12-13T04:49:41.795Z,94.46
2017-12-13T04:52:09.316Z,94.21
2017-12-13T04:54:36.838Z,94.62
2017-12-13T04:57:04.340Z,95.32
2017-12-13T04:59:31.852Z,94.61
2017-12-13T05:01:59.372Z,94.46
2017-12-13T05:04:26.892Z,94.11
2017-12-13T05:06:54.451Z,93.19
2017-12-13T05:09:21.951Z,92.05
2017-12-13T05:11:49.598Z,91.28
2017-12-13T05:14:17.092Z,91.32
2017-12-13T05:16:44.608Z,92.20
2017-12-13T05:19:12.180Z,93.51
2017-12-13T05:21:39.706Z,93.03
2017-12-13T05:24:07.231Z,94.33
2017-12-13T05:26:34.747Z,93.93
2017-12-13T05:29:02.271Z,93.96
2017-12-13T05:31:29.865Z,94.45
2017-12-13T05:33:57.388Z,94.48
2017-12-13T05:36:24.931Z,93.38
2017-12-13T05:38:52.606Z,93.12
2017-12-13T05:41:20.122Z,92.85
2017-12-13T05:43:47.643Z,91.68
2017-12-13T05:46:15.154Z,92.70
2017-12-13T05:48:42.931Z,92.37
2017-12-13T05:51:10.643Z,93.29
2017-12-13T05:53:38.157Z,94.06
2017-12-13T05:56:05.697Z,94.84
2017-12-13T05:58:33.207Z,94.68
2017-12-13T06:01:00.731Z,94.04
2017-12-13T06:03:28.256Z,91.98
2017-12-13T06:05:55.752Z,90.50
2017-12-13T06:08:23.301Z,89.58
2017-12-13T06:10:50.830Z,90.06
2017-12-13T06:13:18.351Z,90.13
2017-12-13T06:15:45.877Z,91.55
2017-12-13T06:18:13.377Z,92.23
2017-12-13T06:20:40.893Z,93.71
2017-12-13T06:23:08.416Z,95.06
2017-12-13T06:25:35.938Z,94.77
2017-12-13T06:28:03.511Z,93.50
2017-12-13T06:30:31.040Z,91.58
2017-12-13T06:32:58.555Z,91.53
2017-12-13T06:35:26.102Z,90.70
2017-12-13T06:37:53.618Z,89.57
2017-12-13T06:40:21.168Z,89.99
2017-12-13T06:42:48.721Z,92.56
2017-12-13T06:45:16.249Z,93.26
2017-12-13T06:47:43.777Z,92.47
2017-12-13T06:50:11.313Z,91.75
2017-12-13T06:52:38.833Z,91.91
2017-12-13T06:55:06.351Z,91.63
2017-12-13T06:57:33.861Z,90.78
2017-12-13T07:00:01.391Z,90.29
2017-12-13T07:02:28.999Z,90.00
2017-12-13T07:04:56.532Z,91.24
2017-12-13T07:07:24.051Z,90.67
2017-12-13T07:09:51.584Z,90.37
2017-12-13T07:12:19.101Z,90.93
2017-12-13T07:14:46.636Z,91.54
2017-12-13T07:17:14.148Z,91.96
2017-12-13T07:19:41.652Z,91.39
2017-12-13T07:22:09.156Z,90.67
2017-12-13T07:24:36.713Z,90.91
2017-12-13T07:27:04.236Z,90.56
2017-12-13T07:29:31.768Z,89.19
2017-12-13T07:31:59.313Z,88.97
2017-12-13T07:34:26.831Z,89.74
2017-12-13T07:36:54.363Z,91.84
2017-12-13T07:39:21.922Z,92.93
2017-12-13T07:41:49.414Z,92.38
2017-12-13T07:44:16.932Z,90.50
2017-12-13T07:46:44.468Z,89.84
2017-12-13T07:49:11.998Z,90.11
2017-12-13T07:51:39.532Z,90.08
2017-12-13T07:54:07.053Z,90.27
2017-12-13T07:56:34.568Z,89.46
2017-12-13T07:59:02.107Z,89.50
2017-12-13T08:01:29.652Z,89.32
2017-12-13T08:03:57.162Z,90.56
2017-12-13T08:06:24.699Z,90.25
2017-12-13T08:08:52.207Z,91.85
2017-12-13T08:11:19.724Z,91.49
2017-12-13T08:13:47.271Z,89.97
2017-12-13T08:16:14.793Z,89.32
2017-12-13T08:18:42.316Z,88.80
2017-12-13T08:21:10.037Z,87.73
2017-12-13T08:23:37.544Z,86.22
2017-12-13T08:26:05.069Z,84.24
2017-12-13T08:28:32.638Z,83.38
2017-12-13T08:31:00.176Z,82.85
2017-12-13T08:33:27.723Z,82.72
2017-12-13T08:35:55.249Z,85.72
2017-12-13T08:38:22.783Z,84.57
2017-12-13T08:40:50.365Z,84.47
2017-12-13T08:43:17.894Z,85.22
2017-12-13T08:45:45.463Z,84.62
2017-12-13T08:48:13.002Z,82.72
2017-12-13T08:50:40.533Z,80.75
2017-12-13T08:53:08.056Z,80.04
2017-12-13T08:55:35.584Z,77.05
2017-12-13T08:58:03.168Z,76.11
2017-12-13T09:00:30.697Z,77.19
2017-12-13T09:02:58.234Z,74.93
2017-12-13T09:05:25.751Z,69.72
2017-12-13T09:07:53.277Z,62.18
2017-12-13T09:10:21.002Z,59.02
2017-12-13T09:12:48.529Z,62.20
2017-12-13T09:15:16.093Z,64.50
2017-12-13T09:17:43.607Z,64.43
2017-12-13T09:20:11.128Z,57.91
2017-12-13T09:22:38.814Z,58.16
2017-12-13T09:25:06.462Z,55.90
2017-12-13T09:27:34.007Z,54.61
2017-12-13T09:30:01.584Z,52.34
2017-12-13T09:32:29.104Z,48.75
2017-12-13T09:34:56.613Z,52.85
2017-12-13T09:37:24.116Z,53.47
2017-12-13T09:39:51.644Z,44.50
2017-12-13T09:42:19.182Z,36.31
2017-12-13T09:44:46.718Z,46.11
2017-12-13T09:47:14.229Z,57.91
2017-12-13T09:49:41.754Z,49.77
2017-12-13T09:52:09.268Z,49.62
2017-12-13T09:54:36.797Z,54.86
2017-12-13T09:57:04.339Z,57.48
2017-12-13T09:59:31.863Z,57.50
2017-12-13T10:01:59.395Z,49.99
2017-12-13T10:04:26.924Z,48.46
2017-12-13T10:06:54.463Z,46.93
2017-12-13T10:09:21.974Z,39.63
2017-12-13T10:11:49.494Z,38.53
2017-12-13T10:14:17.008Z,36.93
2017-12-13T10:16:44.549Z,35.17
2017-12-13T10:19:12.070Z,39.02
2017-12-13T10:21:39.602Z,39.66
2017-12-13T10:24:07.172Z,39.08
2017-12-13T10:26:34.838Z,36.67
2017-12-13T10:29:02.363Z,39.13
2017-12-13T10:31:29.874Z,41.50
2017-12-13T10:33:57.389Z,42.06
2017-12-13T10:36:24.938Z,38.70
2017-12-13T10:38:52.467Z,38.60
2017-12-13T10:41:20.020Z,41.63
2017-12-13T10:43:47.579Z,43.98
2017-12-13T10:46:15.104Z,39.23
2017-12-13T10:48:42.641Z,36.44
2017-12-13T10:51:10.173Z,40.50
2017-12-13T10:53:37.689Z,39.75
2017-12-13T10:56:05.224Z,40.63
2017-12-13T10:58:32.750Z,39.20
2017-12-13T11:01:00.299Z,41.05
2017-12-13T11:03:27.838Z,39.53
2017-12-13T11:05:55.348Z,36.48
2017-12-13T11:08:22.880Z,40.47
2017-12-13T11:10:50.388Z,46.08
2017-12-13T11:13:17.949Z,47.12
2017-12-13T11:15:45.440Z,46.48
2017-12-13T11:18:12.953Z,44.12
2017-12-13T11:20:40.480Z,44.63
2017-12-13T11:23:08.038Z,41.23
2017-12-13T11:25:35.573Z,41.59
2017-12-13T11:28:03.080Z,40.54
2017-12-13T11:30:30.590Z,39.17
2017-12-13T11:32:58.097Z,45.29
2017-12-13T11:35:25.618Z,40.77
2017-12-13T11:37:53.180Z,39.54
2017-12-13T11:40:20.713Z,38.55
2017-12-13T11:42:48.228Z,33.82
2017-12-13T11:45:15.763Z,32.93
2017-12-13T11:47:43.305Z,38.64
2017-12-13T11:50:10.814Z,36.14
2017-12-13T11:52:38.370Z,35.71
2017-12-13T11:55:05.898Z,43.07
2017-12-13T11:57:33.432Z,43.83
2017-12-13T12:00:00.954Z,43.22
2017-12-13T12:02:28.460Z,45.12
2017-12-13T12:04:55.979Z,48.63
2017-12-13T12:07:23.494Z,49.66
2017-12-13T12:09:51.000Z,49.47
2017-12-13T12:12:18.513Z,51.64
2017-12-13T12:14:46.019Z,52.65
2017-12-13T12:17:14.599Z,52.78
2017-12-13T12:19:42.128Z,53.98
2017-12-13T12:22:09.686Z,55.66
2017-12-13T12:24:37.214Z,55.61
2017-12-13T12:27:04.729Z,56.32
2017-12-13T12:29:32.289Z,57.47
2017-12-13T12:31:59.814Z,57.88
2017-12-13T12:34:27.513Z,58.78
2017-12-13T12:36:55.059Z,59.27
2017-12-13T12:39:22.574Z,60.64
2017-12-13T12:41:50.104Z,59.26
2017-12-13T12:44:17.629Z,58.36
2017-12-13T12:46:45.163Z,58.07
2017-12-13T12:49:12.664Z,59.11
2017-12-13T12:51:40.186Z,58.93
2017-12-13T12:54:07.730Z,59.72
2017-12-13T12:56:35.250Z,58.38
2017-12-13T12:59:02.771Z,59.96
2017-12-13T13:01:30.293Z,60.91
2017-12-13T13:03:57.796Z,60.79
2017-12-13T13:06:25.310Z,58.85
2017-12-13T13:08:52.848Z,60.20
2017-12-13T13:11:20.403Z,59.66
2017-12-13T13:13:47.923Z,59.16
2017-12-13T13:16:15.428Z,59.22
2017-12-13T13:18:42.961Z,58.78
2017-12-13T13:21:10.479Z,59.24
2017-12-13T13:23:38.016Z,57.42
2017-12-13T13:26:05.521Z,58.38
2017-12-13T13:28:33.071Z,57.91
2017-12-13T13:31:00.584Z,59.55
2017-12-13T13:33:28.114Z,58.81
2017-12-13T13:35:55.640Z,59.07
2017-12-13T13:38:23.157Z,58.05
2017-12-13T13:40:50.676Z,58.83
2017-12-13T13:43:18.211Z,57.48
2017-12-13T13:45:45.862Z,56.98
2017-12-13T13:48:13.373Z,57.60
2017-12-13T13:50:40.902Z,57.06
2017-12-13T13:53:08.420Z,57.18
2017-12-13T13:55:36.060Z,56.97
2017-12-13T13:58:03.573Z,57.15
2017-12-13T14:00:31.117Z,57.91
2017-12-13T14:02:58.664Z,57.67
2017-12-13T14:05:26.173Z,56.71
2017-12-13T14:07:53.686Z,57.35
2017-12-13T14:10:21.209Z,57.87
2017-12-13T14:12:48.720Z,58.74
2017-12-13T14:15:16.286Z,59.04
2017-12-13T14:17:43.823Z,59.26
2017-12-13T14:20:11.330Z,58.88
2017-12-13T14:22:38.863Z,59.03
2017-12-13T14:25:06.375Z,61.36
2017-12-13T14:27:33.882Z,63.31
2017-12-13T14:30:01.401Z,61.38
2017-12-13T14:32:28.916Z,60.66
2017-12-13T14:34:56.436Z,65.32
2017-12-13T14:37:23.944Z,61.94
2017-12-13T14:39:51.485Z,62.90
2017-12-13T14:42:19.014Z,67.09
2017-12-13T14:44:46.570Z,64.06
2017-12-13T14:47:14.120Z,64.79
2017-12-13T14:49:41.671Z,64.77
2017-12-13T14:52:09.215Z,61.69
2017-12-13T14:54:36.744Z,60.41
2017-12-13T14:57:04.338Z,59.53
2017-12-13T14:59:31.848Z,59.60
2017-12-13T15:01:59.391Z,59.34
2017-12-13T15:04:26.916Z,59.20
2017-12-13T15:06:54.436Z,59.08
2017-12-13T15:09:21.939Z,61.71
2017-12-13T15:11:49.455Z,60.64
2017-12-13T15:14:16.974Z,59.83
2017-12-13T15:16:44.531Z,59.54
2017-12-13T15:19:12.049Z,58.41
2017-12-13T15:21:39.565Z,60.19
2017-12-13T15:24:07.079Z,58.87
2017-12-13T15:26:34.681Z,57.48
2017-12-13T15:29:02.210Z,57.21
2017-12-13T15:31:29.735Z,58.17
2017-12-13T15:33:57.326Z,58.26
2017-12-13T15:36:24.884Z,59.28
2017-12-13T15:38:52.406Z,59.14
2017-12-13T15:41:19.936Z,58.55
2017-12-13T15:43:47.457Z,58.83
2017-12-13T15:46:14.972Z,59.16
2017-12-13T15:48:42.549Z,59.24
2017-12-13T15:51:10.059Z,60.08
2017-12-13T15:53:37.764Z,61.11
2017-12-13T15:56:05.330Z,62.82
2017-12-13T15:58:32.875Z,64.32
2017-12-13T16:01:00.394Z,68.23
2017-12-13T16:03:27.902Z,70.70
2017-12-13T16:05:55.436Z,72.23
2017-12-13T16:08:22.965Z,72.53
2017-12-13T16:10:50.482Z,72.67
2017-12-13T16:13:18.011Z,73.48
2017-12-13T16:15:45.701Z,73.44
2017-12-13T16:18:13.219Z,72.83
2017-12-13T16:20:40.802Z,72.73
2017-12-13T16:23:08.286Z,72.96
2017-12-13T16:25:35.821Z,72.50
2017-12-13T16:28:03.371Z,73.14
2017-12-13T16:30:30.892Z,74.14
2017-12-13T16:32:58.413Z,75.00
2017-12-13T16:35:25.945Z,75.38
2017-12-13T16:37:53.472Z,76.03
2017-12-13T16:40:21.090Z,76.21
2017-12-13T16:42:48.640Z,76.89
2017-12-13T16:45:16.160Z,77.71
2017-12-13T16:47:43.709Z,77.42
2017-12-13T16:50:11.248Z,77.46
2017-12-13T16:52:38.775Z,78.84
2017-12-13T16:55:06.307Z,78.54
2017-12-13T16:57:33.855Z,77.99
2017-12-13T17:00:01.376Z,79.15
2017-12-13T17:02:28.883Z,79.33
2017-12-13T17:04:56.401Z,79.27
2017-12-13T17:07:23.931Z,78.84
2017-12-13T17:09:51.459Z,78.44
2017-12-13T17:12:19.050Z,79.52
2017-12-13T17:14:46.555Z,79.05
2017-12-13T17:17:14.117Z,78.51
2017-12-13T17:19:41.673Z,78.78
2017-12-13T17:22:09.204Z,78.88
2017-12-13T17:24:36.720Z,78.78
2017-12-13T17:27:04.314Z,78.49
2017-12-13T17:29:31.855Z,78.49
2017-12-13T17:31:59.370Z,78.37
2017-12-13T17:34:26.889Z,78.96
2017-12-13T17:36:54.419Z,78.51
2017-12-13T17:39:21.931Z,78.47
2017-12-13T17:41:49.437Z,77.89
2017-12-13T17:44:16.977Z,78.52
2017-12-13T17:46:44.535Z,78.87
2017-12-13T17:49:12.064Z,79.04
2017-12-13T17:51:39.690Z,79.11
2017-12-13T17:54:07.206Z,78.93
2017-12-13T17:56:34.737Z,79.03
2017-12-13T17:59:02.255Z,78.63
2017-12-13T18:01:29.829Z,78.97
2017-12-13T18:03:57.381Z,79.30
2017-12-13T18:06:24.901Z,78.92
2017-12-13T18:08:52.430Z,78.61
2017-12-13T18:11:20.069Z,78.38
2017-12-13T18:13:47.593Z,78.46
2017-12-13T18:16:15.132Z,78.11
2017-12-13T18:18:42.668Z,77.72
2017-12-13T18:21:10.201Z,78.01
2017-12-13T18:23:37.740Z,77.72
2017-12-13T18:26:05.286Z,78.04
2017-12-13T18:28:32.837Z,78.20
2017-12-13T18:31:00.342Z,78.97
2017-12-13T18:33:27.876Z,78.29
2017-12-13T18:35:55.393Z,77.91
2017-12-13T18:38:22.915Z,78.66
2017-12-13T18:40:50.480Z,78.77
2017-12-13T18:43:18.000Z,78.91
2017-12-13T18:45:45.523Z,78.31
2017-12-13T18:48:13.042Z,78.78
2017-12-13T18:50:40.577Z,78.46
2017-12-13T18:53:08.122Z,78.67
2017-12-13T18:55:35.689Z,78.17
2017-12-13T18:58:03.328Z,79.20
2017-12-13T19:00:30.847Z,78.10
2017-12-13T19:02:58.495Z,78.69
2017-12-13T19:05:26.045Z,79.75
2017-12-13T19:07:53.595Z,79.23
2017-12-13T19:10:21.132Z,78.04
2017-12-13T19:12:48.691Z,77.30
2017-12-13T19:15:16.220Z,77.53
2017-12-13T19:17:43.758Z,78.00
2017-12-13T19:20:11.313Z,79.85
2017-12-13T19:22:38.827Z,80.11
2017-12-13T19:25:06.400Z,79.60
2017-12-13T19:27:33.946Z,79.71
2017-12-13T19:30:01.506Z,78.64
2017-12-13T19:32:29.047Z,78.94
2017-12-13T19:34:56.580Z,78.08
2017-12-13T19:37:24.103Z,78.67
2017-12-13T19:39:51.627Z,79.05
2017-12-13T19:42:19.210Z,77.87
2017-12-13T19:44:46.729Z,75.92
2017-12-13T19:47:14.405Z,75.54
2017-12-13T19:49:41.963Z,76.08
2017-12-13T19:52:09.510Z,76.66
2017-12-13T19:54:37.071Z,75.52
2017-12-13T19:57:04.607Z,75.79
2017-12-13T19:59:32.149Z,76.50
2017-12-13T20:01:59.700Z,76.40
2017-12-13T20:04:27.256Z,78.27
2017-12-13T20:06:54.812Z,78.36
2017-12-13T20:09:22.356Z,78.42
2017-12-13T20:11:49.901Z,80.11
2017-12-13T20:14:17.456Z,80.57
2017-12-13T20:16:44.980Z,77.48
2017-12-13T20:19:12.520Z,77.83
2017-12-13T20:21:40.055Z,78.62
2017-12-13T20:24:07.606Z,76.90
2017-12-13T20:26:35.140Z,76.99
2017-12-13T20:29:02.675Z,76.69
2017-12-13T20:31:30.202Z,76.91
2017-12-13T20:33:57.724Z,75.83
2017-12-13T20:36:25.280Z,76.04
2017-12-13T20:38:52.800Z,76.29
2017-12-13T20:41:20.330Z,75.39
2017-12-13T20:43:47.871Z,75.76
2017-12-13T20:46:15.529Z,75.29
2017-12-13T20:48:43.034Z,75.69
2017-12-13T20:51:10.564Z,77.28
2017-12-13T20:53:38.081Z,78.92
2017-12-13T20:56:05.672Z,81.70
2017-12-13T20:58:33.210Z,81.07
2017-12-13T21:01:00.886Z,81.20
2017-12-13T21:03:28.459Z,81.71
2017-12-13T21:05:55.974Z,82.58
2017-12-13T21:08:23.491Z,82.19
2017-12-13T21:10:51.026Z,83.45
2017-12-13T21:13:18.577Z,83.51
2017-12-13T21:15:46.106Z,83.72
2017-12-13T21:18:13.639Z,83.62
2017-12-13T21:20:41.168Z,82.97
2017-12-13T21:23:08.690Z,83.71
2017-12-13T21:25:36.214Z,83.35
2017-12-13T21:28:03.754Z,82.55
2017-12-13T21:30:31.281Z,82.48
2017-12-13T21:32:58.808Z,82.98
2017-12-13T21:35:26.336Z,83.71
2017-12-13T21:37:53.865Z,83.36
2017-12-13T21:40:21.396Z,83.61
2017-12-13T21:42:48.951Z,83.11
2017-12-13T21:45:16.483Z,84.55
2017-12-13T21:47:43.997Z,83.29
2017-12-13T21:50:11.522Z,84.07
2017-12-13T21:52:39.023Z,83.65
2017-12-13T21:55:06.581Z,82.49
2017-12-13T21:57:34.096Z,83.87
2017-12-13T22:00:01.616Z,83.23
2017-12-13T22:02:29.163Z,82.96
2017-12-13T22:04:56.726Z,83.99
2017-12-13T22:07:24.261Z,83.58
2017-12-13T22:09:51.824Z,85.47
2017-12-13T22:12:19.346Z,85.46
2017-12-13T22:14:46.856Z,85.10
2017-12-13T22:17:14.403Z,86.33
2017-12-13T22:19:41.940Z,85.90
2017-12-13T22:22:09.446Z,86.42
2017-12-13T22:24:37.031Z,86.73
2017-12-13T22:27:04.582Z,86.72
2017-12-13T22:29:32.114Z,87.35
2017-12-13T23:12:12.992Z,88.33
2017-12-13T23:14:40.524Z,88.45
2017-12-13T23:17:08.052Z,87.94
2017-12-13T23:19:35.589Z,87.61
2017-12-13T23:22:03.102Z,87.43
2017-12-13T23:24:30.602Z,87.10
2017-12-13T23:26:58.132Z,86.62
2017-12-13T23:29:25.654Z,86.97
2017-12-13T23:31:53.207Z,87.61
2017-12-13T23:34:20.730Z,87.13
2017-12-13T23:36:48.269Z,87.65
2017-12-13T23:39:15.782Z,87.56
2017-12-13T23:41:43.286Z,86.78
2017-12-13T23:44:10.813Z,87.28
2017-12-13T23:46:38.422Z,87.49
2017-12-13T23:49:05.925Z,87.87
2017-12-13T23:51:33.458Z,88.07
2017-12-13T23:54:00.968Z,87.60
2017-12-13T23:56:28.477Z,88.36
2017-12-13T23:58:55.978Z,88.29
